sensor_id;sensor_type;location;lat;lon;timestamp;temperature;humidity
67133;HTU21D;54052;53.542;49.408;2022-09-30T00:00:49;10.89;95.20
67133;HTU21D;54052;53.542;49.408;2022-09-30T00:03:15;10.82;95.68
67133;HTU21D;54052;53.542;49.408;2022-09-30T00:05:42;10.77;95.32
67133;HTU21D;54052;53.542;49.408;2022-09-30T00:08:08;10.73;94.89
67133;HTU21D;54052;53.542;49.408;2022-09-30T00:10:34;10.69;94.94
67133;HTU21D;54052;53.542;49.408;2022-09-30T00:13:01;10.68;94.86
67133;HTU21D;54052;53.542;49.408;2022-09-30T00:15:27;10.64;94.98
67133;HTU21D;54052;53.542;49.408;2022-09-30T00:17:53;10.63;95.08
67133;HTU21D;54052;53.542;49.408;2022-09-30T00:20:20;10.64;95.45
67133;HTU21D;54052;53.542;49.408;2022-09-30T00:22:46;10.64;95.37
67133;HTU21D;54052;53.542;49.408;2022-09-30T00:25:13;10.65;95.14
67133;HTU21D;54052;53.542;49.408;2022-09-30T00:27:41;10.63;95.02
67133;HTU21D;54052;53.542;49.408;2022-09-30T00:30:07;10.64;95.08
67133;HTU21D;54052;53.542;49.408;2022-09-30T00:32:34;10.64;94.87
67133;HTU21D;54052;53.542;49.408;2022-09-30T00:35:00;10.59;94.88
67133;HTU21D;54052;53.542;49.408;2022-09-30T00:37:27;10.58;94.91
67133;HTU21D;54052;53.542;49.408;2022-09-30T00:39:53;10.55;94.78
67133;HTU21D;54052;53.542;49.408;2022-09-30T00:42:19;10.51;94.99
67133;HTU21D;54052;53.542;49.408;2022-09-30T00:45:05;10.46;95.59
67133;HTU21D;54052;53.542;49.408;2022-09-30T00:48:00;10.40;95.72
67133;HTU21D;54052;53.542;49.408;2022-09-30T00:50:37;10.41;95.92
67133;HTU21D;54052;53.542;49.408;2022-09-30T00:53:18;10.41;95.69
67133;HTU21D;54052;53.542;49.408;2022-09-30T00:58:36;10.38;95.20
67133;HTU21D;54052;53.542;49.408;2022-09-30T01:01:04;10.39;95.52
67133;HTU21D;54052;53.542;49.408;2022-09-30T01:03:40;10.39;95.33
67133;HTU21D;54052;53.542;49.408;2022-09-30T01:06:08;10.40;95.03
67133;HTU21D;54052;53.542;49.408;2022-09-30T01:08:36;10.36;94.75
67133;HTU21D;54052;53.542;49.408;2022-09-30T01:11:03;10.34;94.48
67133;HTU21D;54052;53.542;49.408;2022-09-30T01:13:31;10.24;94.85
67133;HTU21D;54052;53.542;49.408;2022-09-30T01:23:59;10.05;95.14
67133;HTU21D;54052;53.542;49.408;2022-09-30T01:27:04;10.06;95.05
67133;HTU21D;54052;53.542;49.408;2022-09-30T01:43:36;9.93;95.02
67133;HTU21D;54052;53.542;49.408;2022-09-30T01:52:07;9.95;95.01
67133;HTU21D;54052;53.542;49.408;2022-09-30T01:57:20;9.96;95.43
67133;HTU21D;54052;53.542;49.408;2022-09-30T01:59:50;9.97;95.60
67133;HTU21D;54052;53.542;49.408;2022-09-30T02:02:23;9.99;95.56
67133;HTU21D;54052;53.542;49.408;2022-09-30T02:05:03;10.00;95.33
67133;HTU21D;54052;53.542;49.408;2022-09-30T02:07:41;10.03;95.17
67133;HTU21D;54052;53.542;49.408;2022-09-30T02:10:22;9.99;95.54
67133;HTU21D;54052;53.542;49.408;2022-09-30T02:13:03;10.00;95.29
67133;HTU21D;54052;53.542;49.408;2022-09-30T02:15:43;9.97;95.30
67133;HTU21D;54052;53.542;49.408;2022-09-30T02:18:22;9.99;95.20
67133;HTU21D;54052;53.542;49.408;2022-09-30T02:20:55;10.01;95.19
67133;HTU21D;54052;53.542;49.408;2022-09-30T02:23:27;10.03;94.73
67133;HTU21D;54052;53.542;49.408;2022-09-30T02:26:02;10.00;95.14
67133;HTU21D;54052;53.542;49.408;2022-09-30T02:28:37;10.01;95.33
67133;HTU21D;54052;53.542;49.408;2022-09-30T02:31:07;10.06;95.52
67133;HTU21D;54052;53.542;49.408;2022-09-30T02:33:40;10.10;95.12
67133;HTU21D;54052;53.542;49.408;2022-09-30T02:36:25;10.13;94.75
67133;HTU21D;54052;53.542;49.408;2022-09-30T02:39:10;10.13;94.40
67133;HTU21D;54052;53.542;49.408;2022-09-30T02:41:44;10.11;94.38
67133;HTU21D;54052;53.542;49.408;2022-09-30T02:44:13;10.06;94.04
67133;HTU21D;54052;53.542;49.408;2022-09-30T02:46:56;10.06;93.91
67133;HTU21D;54052;53.542;49.408;2022-09-30T02:49:35;10.11;93.85
67133;HTU21D;54052;53.542;49.408;2022-09-30T02:55:37;10.09;93.57
67133;HTU21D;54052;53.542;49.408;2022-09-30T02:58:13;10.09;93.21
67133;HTU21D;54052;53.542;49.408;2022-09-30T03:00:41;10.06;93.08
67133;HTU21D;54052;53.542;49.408;2022-09-30T03:03:18;10.04;92.79
67133;HTU21D;54052;53.542;49.408;2022-09-30T03:05:45;9.98;92.87
67133;HTU21D;54052;53.542;49.408;2022-09-30T03:08:13;9.94;92.41
67133;HTU21D;54052;53.542;49.408;2022-09-30T03:10:40;9.91;92.85
67133;HTU21D;54052;53.542;49.408;2022-09-30T03:14:01;9.90;93.00
67133;HTU21D;54052;53.542;49.408;2022-09-30T03:35:56;10.09;93.62
67133;HTU21D;54052;53.542;49.408;2022-09-30T03:41:05;10.08;92.51
67133;HTU21D;54052;53.542;49.408;2022-09-30T03:46:15;10.10;92.54
67133;HTU21D;54052;53.542;49.408;2022-09-30T03:48:44;10.13;92.68
67133;HTU21D;54052;53.542;49.408;2022-09-30T03:51:13;10.20;91.73
67133;HTU21D;54052;53.542;49.408;2022-09-30T03:53:42;10.21;91.61
67133;HTU21D;54052;53.542;49.408;2022-09-30T03:56:09;10.24;90.77
67133;HTU21D;54052;53.542;49.408;2022-09-30T03:58:41;10.23;90.80
67133;HTU21D;54052;53.542;49.408;2022-09-30T04:01:15;10.29;91.11
67133;HTU21D;54052;53.542;49.408;2022-09-30T04:03:44;10.33;90.50
67133;HTU21D;54052;53.542;49.408;2022-09-30T04:06:12;10.35;90.73
67133;HTU21D;54052;53.542;49.408;2022-09-30T04:08:38;10.38;90.82
67133;HTU21D;54052;53.542;49.408;2022-09-30T04:11:05;10.38;90.65
67133;HTU21D;54052;53.542;49.408;2022-09-30T04:13:31;10.38;90.10
67133;HTU21D;54052;53.542;49.408;2022-09-30T04:15:57;10.42;90.26
67133;HTU21D;54052;53.542;49.408;2022-09-30T04:18:23;10.45;90.27
67133;HTU21D;54052;53.542;49.408;2022-09-30T04:20:50;10.49;89.95
67133;HTU21D;54052;53.542;49.408;2022-09-30T04:23:16;10.48;89.96
67133;HTU21D;54052;53.542;49.408;2022-09-30T04:25:42;10.44;89.91
67133;HTU21D;54052;53.542;49.408;2022-09-30T04:28:08;10.50;89.38
67133;HTU21D;54052;53.542;49.408;2022-09-30T04:30:36;10.48;88.69
67133;HTU21D;54052;53.542;49.408;2022-09-30T04:33:03;10.43;89.09
67133;HTU21D;54052;53.542;49.408;2022-09-30T04:35:29;10.42;89.34
67133;HTU21D;54052;53.542;49.408;2022-09-30T04:37:55;10.39;88.88
67133;HTU21D;54052;53.542;49.408;2022-09-30T04:40:21;10.35;89.25
67133;HTU21D;54052;53.542;49.408;2022-09-30T04:42:48;10.31;89.02
67133;HTU21D;54052;53.542;49.408;2022-09-30T04:45:14;10.33;89.63
67133;HTU21D;54052;53.542;49.408;2022-09-30T04:47:44;10.34;89.34
67133;HTU21D;54052;53.542;49.408;2022-09-30T04:50:10;10.34;89.67
67133;HTU21D;54052;53.542;49.408;2022-09-30T04:52:36;10.39;90.12
67133;HTU21D;54052;53.542;49.408;2022-09-30T04:55:03;10.43;89.92
67133;HTU21D;54052;53.542;49.408;2022-09-30T04:57:30;10.50;90.05
67133;HTU21D;54052;53.542;49.408;2022-09-30T04:59:56;10.53;89.10
67133;HTU21D;54052;53.542;49.408;2022-09-30T05:02:22;10.59;89.33
67133;HTU21D;54052;53.542;49.408;2022-09-30T05:04:49;10.64;88.89
67133;HTU21D;54052;53.542;49.408;2022-09-30T05:07:15;10.69;89.28
67133;HTU21D;54052;53.542;49.408;2022-09-30T05:09:41;10.81;88.53
67133;HTU21D;54052;53.542;49.408;2022-09-30T05:12:07;10.92;87.06
67133;HTU21D;54052;53.542;49.408;2022-09-30T05:14:34;10.95;87.33
67133;HTU21D;54052;53.542;49.408;2022-09-30T05:17:00;10.95;87.61
67133;HTU21D;54052;53.542;49.408;2022-09-30T05:19:27;10.95;86.82
67133;HTU21D;54052;53.542;49.408;2022-09-30T05:21:53;10.92;87.30
67133;HTU21D;54052;53.542;49.408;2022-09-30T05:24:20;10.92;87.83
67133;HTU21D;54052;53.542;49.408;2022-09-30T05:26:47;10.99;87.77
67133;HTU21D;54052;53.542;49.408;2022-09-30T05:29:13;11.07;88.09
67133;HTU21D;54052;53.542;49.408;2022-09-30T05:31:39;11.12;87.63
67133;HTU21D;54052;53.542;49.408;2022-09-30T05:34:07;11.16;87.66
67133;HTU21D;54052;53.542;49.408;2022-09-30T05:36:33;11.25;86.38
67133;HTU21D;54052;53.542;49.408;2022-09-30T05:39:00;11.36;86.02
67133;HTU21D;54052;53.542;49.408;2022-09-30T05:41:26;11.43;85.84
67133;HTU21D;54052;53.542;49.408;2022-09-30T05:43:53;11.45;85.90
67133;HTU21D;54052;53.542;49.408;2022-09-30T05:46:19;11.48;85.76
67133;HTU21D;54052;53.542;49.408;2022-09-30T05:48:46;11.53;85.24
67133;HTU21D;54052;53.542;49.408;2022-09-30T05:51:12;11.56;85.82
67133;HTU21D;54052;53.542;49.408;2022-09-30T05:53:38;11.62;85.64
67133;HTU21D;54052;53.542;49.408;2022-09-30T05:56:06;11.66;85.00
67133;HTU21D;54052;53.542;49.408;2022-09-30T05:58:32;11.72;85.31
67133;HTU21D;54052;53.542;49.408;2022-09-30T06:01:04;11.84;84.16
67133;HTU21D;54052;53.542;49.408;2022-09-30T06:03:34;11.84;83.53
67133;HTU21D;54052;53.542;49.408;2022-09-30T06:06:00;11.87;83.36
67133;HTU21D;54052;53.542;49.408;2022-09-30T06:08:27;11.84;82.33
67133;HTU21D;54052;53.542;49.408;2022-09-30T06:10:53;11.87;82.38
67133;HTU21D;54052;53.542;49.408;2022-09-30T06:13:19;11.86;82.49
67133;HTU21D;54052;53.542;49.408;2022-09-30T06:15:57;11.89;83.16
67133;HTU21D;54052;53.542;49.408;2022-09-30T06:18:25;11.86;83.00
67133;HTU21D;54052;53.542;49.408;2022-09-30T06:20:55;12.08;83.52
67133;HTU21D;54052;53.542;49.408;2022-09-30T06:23:21;12.25;82.38
67133;HTU21D;54052;53.542;49.408;2022-09-30T06:25:52;12.37;81.35
67133;HTU21D;54052;53.542;49.408;2022-09-30T06:28:19;12.46;81.36
67133;HTU21D;54052;53.542;49.408;2022-09-30T06:30:46;12.60;81.36
67133;HTU21D;54052;53.542;49.408;2022-09-30T06:33:13;12.76;80.17
67133;HTU21D;54052;53.542;49.408;2022-09-30T06:35:41;12.86;80.62
67133;HTU21D;54052;53.542;49.408;2022-09-30T06:38:08;12.85;78.73
67133;HTU21D;54052;53.542;49.408;2022-09-30T06:40:35;12.79;79.65
67133;HTU21D;54052;53.542;49.408;2022-09-30T06:43:02;12.80;80.71
67133;HTU21D;54052;53.542;49.408;2022-09-30T06:45:29;12.88;81.05
67133;HTU21D;54052;53.542;49.408;2022-09-30T06:47:59;12.95;79.91
67133;HTU21D;54052;53.542;49.408;2022-09-30T06:50:25;12.94;79.59
67133;HTU21D;54052;53.542;49.408;2022-09-30T06:52:56;12.84;79.27
67133;HTU21D;54052;53.542;49.408;2022-09-30T06:55:22;12.81;79.88
67133;HTU21D;54052;53.542;49.408;2022-09-30T06:57:49;12.91;79.95
67133;HTU21D;54052;53.542;49.408;2022-09-30T07:00:15;12.97;78.43
67133;HTU21D;54052;53.542;49.408;2022-09-30T07:02:42;13.02;79.11
67133;HTU21D;54052;53.542;49.408;2022-09-30T07:05:09;13.25;77.68
67133;HTU21D;54052;53.542;49.408;2022-09-30T07:07:35;13.39;78.20
67133;HTU21D;54052;53.542;49.408;2022-09-30T07:10:03;13.70;77.45
67133;HTU21D;54052;53.542;49.408;2022-09-30T07:12:29;13.76;76.29
67133;HTU21D;54052;53.542;49.408;2022-09-30T07:14:56;13.69;75.44
67133;HTU21D;54052;53.542;49.408;2022-09-30T07:17:22;13.62;75.50
67133;HTU21D;54052;53.542;49.408;2022-09-30T07:19:49;13.54;76.70
67133;HTU21D;54052;53.542;49.408;2022-09-30T07:22:18;13.50;76.32
67133;HTU21D;54052;53.542;49.408;2022-09-30T07:24:56;13.56;79.16
67133;HTU21D;54052;53.542;49.408;2022-09-30T07:27:24;13.76;76.86
67133;HTU21D;54052;53.542;49.408;2022-09-30T07:29:51;13.91;76.51
67133;HTU21D;54052;53.542;49.408;2022-09-30T07:32:18;14.03;75.67
67133;HTU21D;54052;53.542;49.408;2022-09-30T07:34:44;14.14;74.69
67133;HTU21D;54052;53.542;49.408;2022-09-30T07:37:13;14.03;75.28
67133;HTU21D;54052;53.542;49.408;2022-09-30T07:39:41;13.86;75.48
67133;HTU21D;54052;53.542;49.408;2022-09-30T07:42:10;13.91;75.21
67133;HTU21D;54052;53.542;49.408;2022-09-30T07:44:38;13.90;76.59
67133;HTU21D;54052;53.542;49.408;2022-09-30T07:47:10;13.98;76.29
67133;HTU21D;54052;53.542;49.408;2022-09-30T07:49:37;14.07;75.67
67133;HTU21D;54052;53.542;49.408;2022-09-30T07:52:04;14.07;75.92
67133;HTU21D;54052;53.542;49.408;2022-09-30T07:54:32;14.01;75.25
67133;HTU21D;54052;53.542;49.408;2022-09-30T07:57:00;13.88;75.81
67133;HTU21D;54052;53.542;49.408;2022-09-30T07:59:28;13.74;76.47
67133;HTU21D;54052;53.542;49.408;2022-09-30T08:01:55;13.59;76.74
67133;HTU21D;54052;53.542;49.408;2022-09-30T08:04:22;13.54;77.53
67133;HTU21D;54052;53.542;49.408;2022-09-30T08:06:52;13.45;77.13
67133;HTU21D;54052;53.542;49.408;2022-09-30T08:09:20;13.36;77.33
67133;HTU21D;54052;53.542;49.408;2022-09-30T08:11:47;13.35;78.33
67133;HTU21D;54052;53.542;49.408;2022-09-30T08:14:16;13.34;78.63
67133;HTU21D;54052;53.542;49.408;2022-09-30T08:16:42;13.30;78.38
67133;HTU21D;54052;53.542;49.408;2022-09-30T08:19:14;13.31;77.87
67133;HTU21D;54052;53.542;49.408;2022-09-30T08:21:42;13.23;78.11
67133;HTU21D;54052;53.542;49.408;2022-09-30T08:24:09;13.16;78.50
67133;HTU21D;54052;53.542;49.408;2022-09-30T08:26:37;13.14;78.78
67133;HTU21D;54052;53.542;49.408;2022-09-30T08:29:03;13.17;78.65
67133;HTU21D;54052;53.542;49.408;2022-09-30T08:31:29;13.22;78.21
67133;HTU21D;54052;53.542;49.408;2022-09-30T08:33:58;13.29;77.47
67133;HTU21D;54052;53.542;49.408;2022-09-30T08:36:26;13.34;78.59
67133;HTU21D;54052;53.542;49.408;2022-09-30T08:38:52;13.39;77.82
67133;HTU21D;54052;53.542;49.408;2022-09-30T08:42:01;13.50;77.44
67133;HTU21D;54052;53.542;49.408;2022-09-30T08:44:47;13.62;77.53
67133;HTU21D;54052;53.542;49.408;2022-09-30T08:50:21;13.70;76.34
67133;HTU21D;54052;53.542;49.408;2022-09-30T08:52:51;13.79;75.67
67133;HTU21D;54052;53.542;49.408;2022-09-30T08:55:45;13.80;76.66
67133;HTU21D;54052;53.542;49.408;2022-09-30T08:58:29;13.65;75.28
67133;HTU21D;54052;53.542;49.408;2022-09-30T09:01:45;13.60;76.18
67133;HTU21D;54052;53.542;49.408;2022-09-30T09:03:45;13.59;75.02
67133;HTU21D;54052;53.542;49.408;2022-09-30T09:06:24;13.59;76.18
67133;HTU21D;54052;53.542;49.408;2022-09-30T09:12:02;13.68;76.24
67133;HTU21D;54052;53.542;49.408;2022-09-30T09:20:39;14.01;76.95
67133;HTU21D;54052;53.542;49.408;2022-09-30T09:23:10;14.13;75.30
67133;HTU21D;54052;53.542;49.408;2022-09-30T09:25:37;14.19;74.09
67133;HTU21D;54052;53.542;49.408;2022-09-30T09:28:21;14.20;74.20
67133;HTU21D;54052;53.542;49.408;2022-09-30T09:30:55;14.14;73.06
67133;HTU21D;54052;53.542;49.408;2022-09-30T09:33:27;13.97;75.20
67133;HTU21D;54052;53.542;49.408;2022-09-30T09:41:39;13.80;75.16
67133;HTU21D;54052;53.542;49.408;2022-09-30T09:47:08;13.56;75.89
67133;HTU21D;54052;53.542;49.408;2022-09-30T09:55:17;13.70;76.12
67133;HTU21D;54052;53.542;49.408;2022-09-30T09:57:46;13.71;76.63
67133;HTU21D;54052;53.542;49.408;2022-09-30T10:00:23;13.78;75.56
67133;HTU21D;54052;53.542;49.408;2022-09-30T10:03:26;13.85;74.95
67133;HTU21D;54052;53.542;49.408;2022-09-30T10:06:10;13.98;74.48
67133;HTU21D;54052;53.542;49.408;2022-09-30T10:08:39;13.94;74.83
67133;HTU21D;54052;53.542;49.408;2022-09-30T10:11:20;13.99;74.92
67133;HTU21D;54052;53.542;49.408;2022-09-30T10:13:47;13.98;75.18
67133;HTU21D;54052;53.542;49.408;2022-09-30T10:16:33;13.84;74.58
67133;HTU21D;54052;53.542;49.408;2022-09-30T10:19:02;13.70;75.16
67133;HTU21D;54052;53.542;49.408;2022-09-30T10:21:30;13.67;75.39
67133;HTU21D;54052;53.542;49.408;2022-09-30T10:23:56;13.66;75.63
67133;HTU21D;54052;53.542;49.408;2022-09-30T10:26:24;13.62;74.98
67133;HTU21D;54052;53.542;49.408;2022-09-30T10:29:01;13.49;74.89
67133;HTU21D;54052;53.542;49.408;2022-09-30T10:31:37;13.36;74.83
67133;HTU21D;54052;53.542;49.408;2022-09-30T10:34:10;13.29;75.21
67133;HTU21D;54052;53.542;49.408;2022-09-30T10:36:42;13.25;75.59
67133;HTU21D;54052;53.542;49.408;2022-09-30T10:39:57;13.25;76.00
67133;HTU21D;54052;53.542;49.408;2022-09-30T10:42:23;13.29;77.14
67133;HTU21D;54052;53.542;49.408;2022-09-30T10:45:05;13.26;76.18
67133;HTU21D;54052;53.542;49.408;2022-09-30T10:47:36;13.19;75.53
67133;HTU21D;54052;53.542;49.408;2022-09-30T10:50:13;13.11;76.69
67133;HTU21D;54052;53.542;49.408;2022-09-30T10:53:00;13.10;76.71
67133;HTU21D;54052;53.542;49.408;2022-09-30T10:55:31;13.00;76.70
67133;HTU21D;54052;53.542;49.408;2022-09-30T11:04:08;12.89;77.37
67133;HTU21D;54052;53.542;49.408;2022-09-30T11:06:38;12.92;77.68
67133;HTU21D;54052;53.542;49.408;2022-09-30T11:09:54;12.85;77.53
67133;HTU21D;54052;53.542;49.408;2022-09-30T11:12:03;12.78;77.22
67133;HTU21D;54052;53.542;49.408;2022-09-30T11:14:56;12.76;78.01
67133;HTU21D;54052;53.542;49.408;2022-09-30T11:17:32;12.75;77.92
67133;HTU21D;54052;53.542;49.408;2022-09-30T11:20:23;12.73;77.84
67133;HTU21D;54052;53.542;49.408;2022-09-30T11:23:27;12.67;78.73
67133;HTU21D;54052;53.542;49.408;2022-09-30T11:25:58;12.63;78.78
67133;HTU21D;54052;53.542;49.408;2022-09-30T11:31:35;12.59;78.48
67133;HTU21D;54052;53.542;49.408;2022-09-30T11:34:17;12.48;79.31
67133;HTU21D;54052;53.542;49.408;2022-09-30T11:42:05;12.30;80.40
67133;HTU21D;54052;53.542;49.408;2022-09-30T11:44:38;12.29;80.34
67133;HTU21D;54052;53.542;49.408;2022-09-30T11:55:39;12.15;80.94
67133;HTU21D;54052;53.542;49.408;2022-09-30T11:58:12;12.06;81.11
67133;HTU21D;54052;53.542;49.408;2022-09-30T12:00:42;12.03;82.04
67133;HTU21D;54052;53.542;49.408;2022-09-30T12:03:34;12.04;81.94
67133;HTU21D;54052;53.542;49.408;2022-09-30T12:06:18;12.04;82.07
67133;HTU21D;54052;53.542;49.408;2022-09-30T12:08:54;12.02;81.62
67133;HTU21D;54052;53.542;49.408;2022-09-30T12:14:09;12.10;81.85
67133;HTU21D;54052;53.542;49.408;2022-09-30T12:16:38;12.16;81.54
67133;HTU21D;54052;53.542;49.408;2022-09-30T12:22:11;12.20;81.01
67133;HTU21D;54052;53.542;49.408;2022-09-30T12:24:36;12.21;81.25
67133;HTU21D;54052;53.542;49.408;2022-09-30T12:27:09;12.30;80.75
67133;HTU21D;54052;53.542;49.408;2022-09-30T12:29:43;12.30;80.88
67133;HTU21D;54052;53.542;49.408;2022-09-30T12:38:29;12.32;80.72
67133;HTU21D;54052;53.542;49.408;2022-09-30T12:49:12;12.37;81.56
67133;HTU21D;54052;53.542;49.408;2022-09-30T12:51:42;12.41;81.30
67133;HTU21D;54052;53.542;49.408;2022-09-30T12:54:20;12.41;81.33
67133;HTU21D;54052;53.542;49.408;2022-09-30T12:56:56;12.43;81.07
67133;HTU21D;54052;53.542;49.408;2022-09-30T12:59:47;12.44;80.83
67133;HTU21D;54052;53.542;49.408;2022-09-30T13:02:29;12.43;80.90
67133;HTU21D;54052;53.542;49.408;2022-09-30T13:15:45;12.34;81.53
67133;HTU21D;54052;53.542;49.408;2022-09-30T13:23:44;12.17;81.08
67133;HTU21D;54052;53.542;49.408;2022-09-30T13:31:27;12.07;81.47
67133;HTU21D;54052;53.542;49.408;2022-09-30T13:39:20;11.92;81.68
67133;HTU21D;54052;53.542;49.408;2022-09-30T13:42:02;11.81;82.67
67133;HTU21D;54052;53.542;49.408;2022-09-30T13:47:32;11.72;82.75
67133;HTU21D;54052;53.542;49.408;2022-09-30T13:50:17;11.74;82.77
67133;HTU21D;54052;53.542;49.408;2022-09-30T13:52:54;11.72;83.02
67133;HTU21D;54052;53.542;49.408;2022-09-30T13:55:26;11.73;82.82
67133;HTU21D;54052;53.542;49.408;2022-09-30T14:00:53;11.73;82.56
67133;HTU21D;54052;53.542;49.408;2022-09-30T14:09:47;11.76;81.83
67133;HTU21D;54052;53.542;49.408;2022-09-30T14:23:01;11.61;82.01
67133;HTU21D;54052;53.542;49.408;2022-09-30T14:25:32;11.64;82.31
67133;HTU21D;54052;53.542;49.408;2022-09-30T14:28:08;11.68;82.31
67133;HTU21D;54052;53.542;49.408;2022-09-30T14:30:40;11.68;82.71
67133;HTU21D;54052;53.542;49.408;2022-09-30T14:33:23;11.67;82.84
67133;HTU21D;54052;53.542;49.408;2022-09-30T14:35:52;11.63;82.79
67133;HTU21D;54052;53.542;49.408;2022-09-30T14:38:20;11.61;82.33
67133;HTU21D;54052;53.542;49.408;2022-09-30T14:40:51;11.63;82.02
67133;HTU21D;54052;53.542;49.408;2022-09-30T14:43:21;11.68;82.31
67133;HTU21D;54052;53.542;49.408;2022-09-30T14:45:55;11.64;81.78
67133;HTU21D;54052;53.542;49.408;2022-09-30T14:48:27;11.59;82.17
67133;HTU21D;54052;53.542;49.408;2022-09-30T14:51:06;11.60;82.01
67133;HTU21D;54052;53.542;49.408;2022-09-30T14:53:39;11.60;82.35
67133;HTU21D;54052;53.542;49.408;2022-09-30T14:56:29;11.66;82.22
67133;HTU21D;54052;53.542;49.408;2022-09-30T14:58:57;11.62;82.01
67133;HTU21D;54052;53.542;49.408;2022-09-30T15:01:28;11.61;82.06
67133;HTU21D;54052;53.542;49.408;2022-09-30T15:04:06;11.61;81.78
67133;HTU21D;54052;53.542;49.408;2022-09-30T15:06:37;11.61;81.89
67133;HTU21D;54052;53.542;49.408;2022-09-30T15:09:16;11.61;82.17
67133;HTU21D;54052;53.542;49.408;2022-09-30T15:11:44;11.60;82.45
67133;HTU21D;54052;53.542;49.408;2022-09-30T15:14:16;11.58;82.06
67133;HTU21D;54052;53.542;49.408;2022-09-30T15:16:48;11.52;82.76
67133;HTU21D;54052;53.542;49.408;2022-09-30T15:19:34;11.53;82.71
67133;HTU21D;54052;53.542;49.408;2022-09-30T15:22:09;11.57;82.65
67133;HTU21D;54052;53.542;49.408;2022-09-30T15:24:37;11.58;82.58
67133;HTU21D;54052;53.542;49.408;2022-09-30T15:27:06;11.60;82.26
67133;HTU21D;54052;53.542;49.408;2022-09-30T15:29:56;11.56;82.29
67133;HTU21D;54052;53.542;49.408;2022-09-30T15:32:23;11.53;81.62
67133;HTU21D;54052;53.542;49.408;2022-09-30T15:34:50;11.52;82.04
67133;HTU21D;54052;53.542;49.408;2022-09-30T15:37:22;11.45;81.97
67133;HTU21D;54052;53.542;49.408;2022-09-30T15:39:49;11.38;81.42
67133;HTU21D;54052;53.542;49.408;2022-09-30T15:42:44;11.31;82.22
67133;HTU21D;54052;53.542;49.408;2022-09-30T15:48:01;11.37;82.22
67133;HTU21D;54052;53.542;49.408;2022-09-30T15:50:36;11.34;82.33
67133;HTU21D;54052;53.542;49.408;2022-09-30T15:53:16;11.32;82.64
67133;HTU21D;54052;53.542;49.408;2022-09-30T15:55:44;11.34;82.03
67133;HTU21D;54052;53.542;49.408;2022-09-30T16:04:20;11.30;82.33
67133;HTU21D;54052;53.542;49.408;2022-09-30T16:06:54;11.27;82.63
67133;HTU21D;54052;53.542;49.408;2022-09-30T16:15:08;11.27;82.57
67133;HTU21D;54052;53.542;49.408;2022-09-30T16:17:46;11.31;82.69
67133;HTU21D;54052;53.542;49.408;2022-09-30T16:25:11;11.41;81.84
67133;HTU21D;54052;53.542;49.408;2022-09-30T16:27:38;11.39;81.88
67133;HTU21D;54052;53.542;49.408;2022-09-30T16:30:05;11.34;81.97
67133;HTU21D;54052;53.542;49.408;2022-09-30T16:32:36;11.34;82.13
67133;HTU21D;54052;53.542;49.408;2022-09-30T16:35:04;11.33;81.92
67133;HTU21D;54052;53.542;49.408;2022-09-30T16:37:31;11.32;81.87
67133;HTU21D;54052;53.542;49.408;2022-09-30T16:40:22;11.36;81.81
67133;HTU21D;54052;53.542;49.408;2022-09-30T16:42:50;11.40;81.86
67133;HTU21D;54052;53.542;49.408;2022-09-30T16:45:17;11.45;81.91
67133;HTU21D;54052;53.542;49.408;2022-09-30T16:47:43;11.48;82.07
67133;HTU21D;54052;53.542;49.408;2022-09-30T16:53:01;11.53;81.79
67133;HTU21D;54052;53.542;49.408;2022-09-30T16:55:28;11.55;82.08
67133;HTU21D;54052;53.542;49.408;2022-09-30T16:57:55;11.54;81.97
67133;HTU21D;54052;53.542;49.408;2022-09-30T17:00:25;11.55;81.59
67133;HTU21D;54052;53.542;49.408;2022-09-30T17:02:51;11.58;81.70
67133;HTU21D;54052;53.542;49.408;2022-09-30T17:05:20;11.61;81.33
67133;HTU21D;54052;53.542;49.408;2022-09-30T17:20:48;11.62;81.94
67133;HTU21D;54052;53.542;49.408;2022-09-30T17:23:20;11.62;82.39
67133;HTU21D;54052;53.542;49.408;2022-09-30T17:25:47;11.62;82.20
67133;HTU21D;54052;53.542;49.408;2022-09-30T17:28:14;11.61;82.33
67133;HTU21D;54052;53.542;49.408;2022-09-30T17:30:42;11.60;82.39
67133;HTU21D;54052;53.542;49.408;2022-09-30T17:33:09;11.66;81.88
67133;HTU21D;54052;53.542;49.408;2022-09-30T17:35:36;11.69;81.47
67133;HTU21D;54052;53.542;49.408;2022-09-30T17:38:07;11.71;82.03
67133;HTU21D;54052;53.542;49.408;2022-09-30T17:40:34;11.69;82.08
67133;HTU21D;54052;53.542;49.408;2022-09-30T17:43:19;11.67;82.10
67133;HTU21D;54052;53.542;49.408;2022-09-30T17:45:46;11.67;81.88
67133;HTU21D;54052;53.542;49.408;2022-09-30T17:48:14;11.63;81.33
67133;HTU21D;54052;53.542;49.408;2022-09-30T17:50:44;11.61;81.57
67133;HTU21D;54052;53.542;49.408;2022-09-30T17:53:12;11.60;81.07
67133;HTU21D;54052;53.542;49.408;2022-09-30T17:55:39;11.59;81.46
67133;HTU21D;54052;53.542;49.408;2022-09-30T17:58:07;11.56;81.64
67133;HTU21D;54052;53.542;49.408;2022-09-30T18:00:34;11.60;82.01
67133;HTU21D;54052;53.542;49.408;2022-09-30T18:03:01;11.61;81.44
67133;HTU21D;54052;53.542;49.408;2022-09-30T18:05:29;11.63;81.17
67133;HTU21D;54052;53.542;49.408;2022-09-30T18:07:55;11.60;81.00
67133;HTU21D;54052;53.542;49.408;2022-09-30T18:10:23;11.55;81.26
67133;HTU21D;54052;53.542;49.408;2022-09-30T18:12:51;11.48;81.34
67133;HTU21D;54052;53.542;49.408;2022-09-30T18:15:18;11.51;81.58
67133;HTU21D;54052;53.542;49.408;2022-09-30T18:17:46;11.51;81.36
67133;HTU21D;54052;53.542;49.408;2022-09-30T18:20:13;11.51;81.60
67133;HTU21D;54052;53.542;49.408;2022-09-30T18:22:40;11.47;82.20
67133;HTU21D;54052;53.542;49.408;2022-09-30T18:25:07;11.46;82.77
67133;HTU21D;54052;53.542;49.408;2022-09-30T18:27:55;11.40;83.20
67133;HTU21D;54052;53.542;49.408;2022-09-30T18:30:21;11.39;83.16
67133;HTU21D;54052;53.542;49.408;2022-09-30T18:32:49;11.44;83.10
67133;HTU21D;54052;53.542;49.408;2022-09-30T18:35:19;11.44;82.86
67133;HTU21D;54052;53.542;49.408;2022-09-30T18:37:47;11.45;83.16
67133;HTU21D;54052;53.542;49.408;2022-09-30T18:40:21;11.43;82.86
67133;HTU21D;54052;53.542;49.408;2022-09-30T18:42:52;11.33;82.65
67133;HTU21D;54052;53.542;49.408;2022-09-30T18:45:21;11.19;82.91
67133;HTU21D;54052;53.542;49.408;2022-09-30T18:47:56;11.19;83.32
67133;HTU21D;54052;53.542;49.408;2022-09-30T18:50:24;11.22;83.04
67133;HTU21D;54052;53.542;49.408;2022-09-30T18:52:51;11.19;83.07
67133;HTU21D;54052;53.542;49.408;2022-09-30T18:55:18;11.20;82.77
67133;HTU21D;54052;53.542;49.408;2022-09-30T18:57:45;11.18;82.87
67133;HTU21D;54052;53.542;49.408;2022-09-30T19:00:16;11.15;82.42
67133;HTU21D;54052;53.542;49.408;2022-09-30T19:02:42;11.03;83.11
67133;HTU21D;54052;53.542;49.408;2022-09-30T19:05:13;11.00;83.68